Little Indian, Illinois
Current Conditions -  °F | °C
As of 11:55 PM on Thursday 30 Oct 2014 (Local Time) from KIJX Reporting Station
Overcast Overcast  
Wind Chill: 43°   Ceiling: 9000
Heat Index: 46°   Visibility: 10mi
Dew Point: 43°   Wind: 5mph
Humidity: 91%   Direction: 350°N
Pressure: 30.08"   Gusts: NA
Location:  39.9268°N, 90.2187°W
Report Text: KIJX 310455Z AUTO 35004KT 10SM OVC090 08/06 A3008 RMK AO2 T00750061
Loading
Personal Weather Stations






























Interactive Weather Map New forecast layout! Learn more

10-Day Weather Forecast

Advertisements
Track Severe Weather on mobile